sensor_id;sensor_type;location;lat;lon;timestamp;P1;durP1;ratioP1;P2;durP2;ratioP2
62102;SDS011;48077;48.104;11.702;2023-04-15T00:01:14;30.20;;;27.45;;
62102;SDS011;48077;48.104;11.702;2023-04-15T00:07:41;45.35;;;41.85;;
62102;SDS011;48077;48.104;11.702;2023-04-15T00:10:05;41.70;;;38.58;;
62102;SDS011;48077;48.104;11.702;2023-04-15T00:12:29;40.88;;;37.78;;
62102;SDS011;48077;48.104;11.702;2023-04-15T00:14:53;39.22;;;36.33;;
62102;SDS011;48077;48.104;11.702;2023-04-15T00:17:19;39.25;;;36.40;;
62102;SDS011;48077;48.104;11.702;2023-04-15T00:19:42;37.75;;;35.00;;
62102;SDS011;48077;48.104;11.702;2023-04-15T00:22:07;39.35;;;36.30;;
62102;SDS011;48077;48.104;11.702;2023-04-15T00:24:31;37.92;;;35.08;;
62102;SDS011;48077;48.104;11.702;2023-04-15T00:26:54;36.88;;;34.25;;
62102;SDS011;48077;48.104;11.702;2023-04-15T00:29:20;41.17;;;38.08;;
62102;SDS011;48077;48.104;11.702;2023-04-15T00:31:44;37.15;;;34.35;;
62102;SDS011;48077;48.104;11.702;2023-04-15T00:34:07;37.10;;;34.33;;
62102;SDS011;48077;48.104;11.702;2023-04-15T00:36:31;37.88;;;35.20;;
62102;SDS011;48077;48.104;11.702;2023-04-15T00:38:56;35.13;;;32.58;;
62102;SDS011;48077;48.104;11.702;2023-04-15T00:41:19;36.30;;;33.53;;
62102;SDS011;48077;48.104;11.702;2023-04-15T00:43:43;36.80;;;33.92;;
62102;SDS011;48077;48.104;11.702;2023-04-15T00:46:08;35.17;;;32.55;;
62102;SDS011;48077;48.104;11.702;2023-04-15T00:48:36;35.03;;;32.58;;
62102;SDS011;48077;48.104;11.702;2023-04-15T00:51:00;37.47;;;34.65;;
62102;SDS011;48077;48.104;11.702;2023-04-15T00:53:24;36.00;;;33.45;;
62102;SDS011;48077;48.104;11.702;2023-04-15T00:55:48;38.90;;;35.95;;
62102;SDS011;48077;48.104;11.702;2023-04-15T00:58:11;36.50;;;33.83;;
62102;SDS011;48077;48.104;11.702;2023-04-15T01:00:35;37.13;;;34.30;;
62102;SDS011;48077;48.104;11.702;2023-04-15T01:02:59;37.00;;;34.30;;
62102;SDS011;48077;48.104;11.702;2023-04-15T01:05:22;35.08;;;32.58;;
62102;SDS011;48077;48.104;11.702;2023-04-15T01:07:47;35.17;;;32.63;;
62102;SDS011;48077;48.104;11.702;2023-04-15T01:10:10;35.25;;;32.58;;
62102;SDS011;48077;48.104;11.702;2023-04-15T01:12:34;35.47;;;32.70;;
62102;SDS011;48077;48.104;11.702;2023-04-15T01:14:58;36.15;;;33.50;;
62102;SDS011;48077;48.104;11.702;2023-04-15T01:17:23;33.53;;;31.15;;
62102;SDS011;48077;48.104;11.702;2023-04-15T01:19:47;34.00;;;31.52;;
62102;SDS011;48077;48.104;11.702;2023-04-15T01:22:10;34.42;;;31.77;;
62102;SDS011;48077;48.104;11.702;2023-04-15T01:24:34;34.08;;;31.58;;
62102;SDS011;48077;48.104;11.702;2023-04-15T01:26:59;36.92;;;34.20;;
62102;SDS011;48077;48.104;11.702;2023-04-15T01:29:23;34.67;;;31.95;;
62102;SDS011;48077;48.104;11.702;2023-04-15T01:31:52;36.05;;;33.33;;
62102;SDS011;48077;48.104;11.702;2023-04-15T01:34:16;38.92;;;35.70;;
62102;SDS011;48077;48.104;11.702;2023-04-15T01:36:40;38.17;;;35.03;;
62102;SDS011;48077;48.104;11.702;2023-04-15T01:39:03;36.65;;;33.83;;
62102;SDS011;48077;48.104;11.702;2023-04-15T01:41:29;37.80;;;35.05;;
62102;SDS011;48077;48.104;11.702;2023-04-15T01:43:53;37.13;;;34.35;;
62102;SDS011;48077;48.104;11.702;2023-04-15T01:46:19;36.90;;;34.13;;
62102;SDS011;48077;48.104;11.702;2023-04-15T01:48:43;38.15;;;35.05;;
62102;SDS011;48077;48.104;11.702;2023-04-15T01:51:06;37.85;;;34.70;;
62102;SDS011;48077;48.104;11.702;2023-04-15T01:53:30;36.45;;;33.63;;
62102;SDS011;48077;48.104;11.702;2023-04-15T01:55:53;35.78;;;33.20;;
62102;SDS011;48077;48.104;11.702;2023-04-15T01:58:19;38.47;;;35.40;;
62102;SDS011;48077;48.104;11.702;2023-04-15T02:00:44;36.80;;;34.08;;
62102;SDS011;48077;48.104;11.702;2023-04-15T02:03:10;34.90;;;32.22;;
62102;SDS011;48077;48.104;11.702;2023-04-15T02:05:33;34.95;;;32.30;;
62102;SDS011;48077;48.104;11.702;2023-04-15T02:07:56;36.65;;;33.83;;
62102;SDS011;48077;48.104;11.702;2023-04-15T02:10:20;36.97;;;34.15;;
62102;SDS011;48077;48.104;11.702;2023-04-15T02:12:43;35.00;;;32.50;;
62102;SDS011;48077;48.104;11.702;2023-04-15T02:15:07;37.47;;;34.53;;
62102;SDS011;48077;48.104;11.702;2023-04-15T02:17:33;36.40;;;33.63;;
62102;SDS011;48077;48.104;11.702;2023-04-15T02:19:57;35.55;;;33.00;;
62102;SDS011;48077;48.104;11.702;2023-04-15T02:22:21;37.30;;;34.45;;
62102;SDS011;48077;48.104;11.702;2023-04-15T02:24:44;37.53;;;34.72;;
62102;SDS011;48077;48.104;11.702;2023-04-15T02:27:08;38.97;;;35.78;;
62102;SDS011;48077;48.104;11.702;2023-04-15T02:29:32;35.90;;;33.42;;
62102;SDS011;48077;48.104;11.702;2023-04-15T02:31:55;36.70;;;34.00;;
62102;SDS011;48077;48.104;11.702;2023-04-15T02:34:19;37.65;;;34.67;;
62102;SDS011;48077;48.104;11.702;2023-04-15T02:36:42;41.05;;;37.20;;
62102;SDS011;48077;48.104;11.702;2023-04-15T02:39:08;40.40;;;37.13;;
62102;SDS011;48077;48.104;11.702;2023-04-15T02:41:34;36.85;;;34.00;;
62102;SDS011;48077;48.104;11.702;2023-04-15T02:43:58;37.70;;;34.97;;
62102;SDS011;48077;48.104;11.702;2023-04-15T02:46:21;40.60;;;37.28;;
62102;SDS011;48077;48.104;11.702;2023-04-15T02:48:48;40.17;;;37.25;;
62102;SDS011;48077;48.104;11.702;2023-04-15T02:53:39;37.88;;;34.58;;
62102;SDS011;48077;48.104;11.702;2023-04-15T02:56:03;39.50;;;36.50;;
62102;SDS011;48077;48.104;11.702;2023-04-15T02:58:28;36.60;;;33.88;;
62102;SDS011;48077;48.104;11.702;2023-04-15T03:00:51;35.28;;;32.50;;
62102;SDS011;48077;48.104;11.702;2023-04-15T03:03:14;39.78;;;36.47;;
62102;SDS011;48077;48.104;11.702;2023-04-15T03:05:38;38.30;;;35.35;;
62102;SDS011;48077;48.104;11.702;2023-04-15T03:08:01;38.95;;;35.88;;
62102;SDS011;48077;48.104;11.702;2023-04-15T03:10:27;38.55;;;35.55;;
62102;SDS011;48077;48.104;11.702;2023-04-15T03:12:51;37.42;;;34.58;;
62102;SDS011;48077;48.104;11.702;2023-04-15T03:15:16;44.47;;;39.90;;
62102;SDS011;48077;48.104;11.702;2023-04-15T03:17:39;34.83;;;32.28;;
62102;SDS011;48077;48.104;11.702;2023-04-15T03:20:03;35.03;;;32.45;;
62102;SDS011;48077;48.104;11.702;2023-04-15T03:22:30;37.28;;;34.50;;
62102;SDS011;48077;48.104;11.702;2023-04-15T03:24:57;36.33;;;33.67;;
62102;SDS011;48077;48.104;11.702;2023-04-15T03:27:21;38.13;;;35.28;;
62102;SDS011;48077;48.104;11.702;2023-04-15T03:29:44;36.47;;;33.80;;
62102;SDS011;48077;48.104;11.702;2023-04-15T03:32:07;38.15;;;35.13;;
62102;SDS011;48077;48.104;11.702;2023-04-15T03:34:31;34.63;;;32.13;;
62102;SDS011;48077;48.104;11.702;2023-04-15T03:36:54;35.13;;;32.45;;
62102;SDS011;48077;48.104;11.702;2023-04-15T03:39:20;49.88;;;43.13;;
62102;SDS011;48077;48.104;11.702;2023-04-15T03:41:43;35.33;;;32.78;;
62102;SDS011;48077;48.104;11.702;2023-04-15T03:44:10;37.03;;;34.35;;
62102;SDS011;48077;48.104;11.702;2023-04-15T03:46:33;35.33;;;32.78;;
62102;SDS011;48077;48.104;11.702;2023-04-15T03:48:59;34.70;;;32.15;;
62102;SDS011;48077;48.104;11.702;2023-04-15T03:51:26;35.00;;;32.55;;
62102;SDS011;48077;48.104;11.702;2023-04-15T03:53:49;36.05;;;33.38;;
62102;SDS011;48077;48.104;11.702;2023-04-15T03:56:13;35.50;;;32.60;;
62102;SDS011;48077;48.104;11.702;2023-04-15T03:58:36;34.17;;;31.65;;
62102;SDS011;48077;48.104;11.702;2023-04-15T04:00:59;34.88;;;32.42;;
62102;SDS011;48077;48.104;11.702;2023-04-15T04:03:23;34.70;;;32.13;;
62102;SDS011;48077;48.104;11.702;2023-04-15T04:05:46;33.10;;;30.67;;
62102;SDS011;48077;48.104;11.702;2023-04-15T04:08:10;34.40;;;31.80;;
62102;SDS011;48077;48.104;11.702;2023-04-15T04:10:35;33.33;;;30.90;;
62102;SDS011;48077;48.104;11.702;2023-04-15T04:13:03;31.60;;;29.15;;
62102;SDS011;48077;48.104;11.702;2023-04-15T04:15:27;32.45;;;29.95;;
62102;SDS011;48077;48.104;11.702;2023-04-15T04:17:50;32.80;;;30.25;;
62102;SDS011;48077;48.104;11.702;2023-04-15T04:20:14;33.70;;;31.02;;
62102;SDS011;48077;48.104;11.702;2023-04-15T04:22:39;31.58;;;29.23;;
62102;SDS011;48077;48.104;11.702;2023-04-15T04:25:03;34.72;;;32.13;;
62102;SDS011;48077;48.104;11.702;2023-04-15T04:27:30;32.70;;;30.17;;
62102;SDS011;48077;48.104;11.702;2023-04-15T04:29:53;31.75;;;29.48;;
62102;SDS011;48077;48.104;11.702;2023-04-15T04:32:17;35.58;;;32.70;;
62102;SDS011;48077;48.104;11.702;2023-04-15T04:34:40;33.08;;;30.73;;
62102;SDS011;48077;48.104;11.702;2023-04-15T04:37:03;33.97;;;31.33;;
62102;SDS011;48077;48.104;11.702;2023-04-15T04:39:29;33.03;;;30.67;;
62102;SDS011;48077;48.104;11.702;2023-04-15T04:41:53;32.70;;;30.17;;
62102;SDS011;48077;48.104;11.702;2023-04-15T04:44:16;33.60;;;31.05;;
62102;SDS011;48077;48.104;11.702;2023-04-15T04:46:40;31.75;;;29.58;;
62102;SDS011;48077;48.104;11.702;2023-04-15T04:49:03;31.70;;;29.13;;
62102;SDS011;48077;48.104;11.702;2023-04-15T04:51:26;32.65;;;30.30;;
62102;SDS011;48077;48.104;11.702;2023-04-15T04:53:50;33.10;;;30.75;;
62102;SDS011;48077;48.104;11.702;2023-04-15T04:56:13;34.67;;;31.48;;
62102;SDS011;48077;48.104;11.702;2023-04-15T04:58:36;32.45;;;29.95;;
62102;SDS011;48077;48.104;11.702;2023-04-15T05:01:00;33.17;;;30.83;;
62102;SDS011;48077;48.104;11.702;2023-04-15T05:03:24;32.53;;;30.17;;
62102;SDS011;48077;48.104;11.702;2023-04-15T05:05:48;32.53;;;30.20;;
62102;SDS011;48077;48.104;11.702;2023-04-15T05:08:11;32.10;;;29.67;;
62102;SDS011;48077;48.104;11.702;2023-04-15T05:10:35;31.48;;;29.33;;
62102;SDS011;48077;48.104;11.702;2023-04-15T05:12:58;33.15;;;30.60;;
62102;SDS011;48077;48.104;11.702;2023-04-15T05:15:21;33.55;;;31.20;;
62102;SDS011;48077;48.104;11.702;2023-04-15T05:17:45;33.78;;;31.33;;
62102;SDS011;48077;48.104;11.702;2023-04-15T05:20:10;37.35;;;34.47;;
62102;SDS011;48077;48.104;11.702;2023-04-15T05:22:34;33.60;;;31.20;;
62102;SDS011;48077;48.104;11.702;2023-04-15T05:24:58;37.03;;;34.17;;
62102;SDS011;48077;48.104;11.702;2023-04-15T05:27:22;34.10;;;31.75;;
62102;SDS011;48077;48.104;11.702;2023-04-15T05:29:46;33.65;;;31.20;;
62102;SDS011;48077;48.104;11.702;2023-04-15T05:32:09;33.92;;;31.15;;
62102;SDS011;48077;48.104;11.702;2023-04-15T05:34:33;35.97;;;33.17;;
62102;SDS011;48077;48.104;11.702;2023-04-15T05:36:56;34.65;;;32.00;;
62102;SDS011;48077;48.104;11.702;2023-04-15T05:39:20;34.05;;;31.13;;
62102;SDS011;48077;48.104;11.702;2023-04-15T05:41:43;32.25;;;29.98;;
62102;SDS011;48077;48.104;11.702;2023-04-15T05:44:07;32.20;;;29.88;;
62102;SDS011;48077;48.104;11.702;2023-04-15T05:46:33;32.28;;;29.92;;
62102;SDS011;48077;48.104;11.702;2023-04-15T05:48:59;33.33;;;30.73;;
62102;SDS011;48077;48.104;11.702;2023-04-15T05:51:23;32.15;;;29.60;;
62102;SDS011;48077;48.104;11.702;2023-04-15T05:53:49;33.60;;;30.83;;
62102;SDS011;48077;48.104;11.702;2023-04-15T05:56:12;31.83;;;29.33;;
62102;SDS011;48077;48.104;11.702;2023-04-15T05:58:35;31.45;;;29.08;;
62102;SDS011;48077;48.104;11.702;2023-04-15T06:01:01;31.63;;;29.33;;
62102;SDS011;48077;48.104;11.702;2023-04-15T06:03:25;30.08;;;27.73;;
62102;SDS011;48077;48.104;11.702;2023-04-15T06:05:48;29.65;;;27.35;;
62102;SDS011;48077;48.104;11.702;2023-04-15T06:08:12;31.10;;;28.42;;
62102;SDS011;48077;48.104;11.702;2023-04-15T06:10:36;30.40;;;28.25;;
62102;SDS011;48077;48.104;11.702;2023-04-15T06:12:59;30.08;;;27.73;;
62102;SDS011;48077;48.104;11.702;2023-04-15T06:15:22;30.23;;;27.75;;
62102;SDS011;48077;48.104;11.702;2023-04-15T06:17:46;32.53;;;29.98;;
62102;SDS011;48077;48.104;11.702;2023-04-15T06:20:09;30.08;;;27.60;;
62102;SDS011;48077;48.104;11.702;2023-04-15T06:22:33;29.50;;;27.15;;
62102;SDS011;48077;48.104;11.702;2023-04-15T06:24:58;27.45;;;25.35;;
62102;SDS011;48077;48.104;11.702;2023-04-15T06:27:22;28.60;;;26.55;;
62102;SDS011;48077;48.104;11.702;2023-04-15T06:29:45;28.35;;;26.25;;
62102;SDS011;48077;48.104;11.702;2023-04-15T06:32:09;29.55;;;27.10;;
62102;SDS011;48077;48.104;11.702;2023-04-15T06:34:34;28.13;;;25.85;;
62102;SDS011;48077;48.104;11.702;2023-04-15T06:37:00;28.35;;;26.02;;
62102;SDS011;48077;48.104;11.702;2023-04-15T06:39:23;26.70;;;24.52;;
62102;SDS011;48077;48.104;11.702;2023-04-15T06:41:50;26.45;;;24.23;;
62102;SDS011;48077;48.104;11.702;2023-04-15T06:44:13;28.00;;;25.45;;
62102;SDS011;48077;48.104;11.702;2023-04-15T06:46:36;27.83;;;25.58;;
62102;SDS011;48077;48.104;11.702;2023-04-15T06:49:00;24.38;;;22.55;;
62102;SDS011;48077;48.104;11.702;2023-04-15T06:51:23;24.30;;;22.38;;
62102;SDS011;48077;48.104;11.702;2023-04-15T06:53:46;23.10;;;21.23;;
62102;SDS011;48077;48.104;11.702;2023-04-15T06:56:10;22.42;;;20.55;;
62102;SDS011;48077;48.104;11.702;2023-04-15T06:58:33;20.92;;;19.17;;
62102;SDS011;48077;48.104;11.702;2023-04-15T07:00:57;22.58;;;20.38;;
62102;SDS011;48077;48.104;11.702;2023-04-15T07:03:20;22.90;;;20.73;;
62102;SDS011;48077;48.104;11.702;2023-04-15T07:05:43;20.80;;;19.23;;
62102;SDS011;48077;48.104;11.702;2023-04-15T07:08:07;19.25;;;17.52;;
62102;SDS011;48077;48.104;11.702;2023-04-15T07:10:31;18.88;;;17.35;;
62102;SDS011;48077;48.104;11.702;2023-04-15T07:12:58;20.63;;;18.77;;
62102;SDS011;48077;48.104;11.702;2023-04-15T07:15:21;17.17;;;15.85;;
62102;SDS011;48077;48.104;11.702;2023-04-15T07:17:48;18.33;;;16.65;;
62102;SDS011;48077;48.104;11.702;2023-04-15T07:20:11;18.88;;;17.10;;
62102;SDS011;48077;48.104;11.702;2023-04-15T07:22:35;15.63;;;14.43;;
62102;SDS011;48077;48.104;11.702;2023-04-15T07:24:59;16.52;;;14.60;;
62102;SDS011;48077;48.104;11.702;2023-04-15T07:27:23;15.85;;;14.20;;
62102;SDS011;48077;48.104;11.702;2023-04-15T07:29:46;17.40;;;15.93;;
62102;SDS011;48077;48.104;11.702;2023-04-15T07:32:10;15.40;;;13.82;;
62102;SDS011;48077;48.104;11.702;2023-04-15T07:34:33;14.57;;;13.10;;
62102;SDS011;48077;48.104;11.702;2023-04-15T07:37:00;14.40;;;13.10;;
62102;SDS011;48077;48.104;11.702;2023-04-15T07:39:23;13.93;;;12.52;;
62102;SDS011;48077;48.104;11.702;2023-04-15T07:41:47;12.95;;;11.95;;
62102;SDS011;48077;48.104;11.702;2023-04-15T07:44:11;21.85;;;14.65;;
62102;SDS011;48077;48.104;11.702;2023-04-15T07:46:34;14.10;;;13.00;;
62102;SDS011;48077;48.104;11.702;2023-04-15T07:48:59;12.63;;;11.65;;
62102;SDS011;48077;48.104;11.702;2023-04-15T07:51:22;11.98;;;11.02;;
62102;SDS011;48077;48.104;11.702;2023-04-15T07:53:46;12.13;;;11.18;;
62102;SDS011;48077;48.104;11.702;2023-04-15T07:56:11;13.35;;;11.45;;
62102;SDS011;48077;48.104;11.702;2023-04-15T07:58:34;12.13;;;10.85;;
62102;SDS011;48077;48.104;11.702;2023-04-15T08:01:00;13.30;;;11.98;;
62102;SDS011;48077;48.104;11.702;2023-04-15T08:03:24;12.55;;;11.38;;
62102;SDS011;48077;48.104;11.702;2023-04-15T08:05:50;11.30;;;10.38;;
62102;SDS011;48077;48.104;11.702;2023-04-15T08:08:13;14.88;;;13.30;;
62102;SDS011;48077;48.104;11.702;2023-04-15T08:10:36;12.65;;;11.60;;
62102;SDS011;48077;48.104;11.702;2023-04-15T08:13:00;10.50;;;9.75;;
62102;SDS011;48077;48.104;11.702;2023-04-15T08:15:23;12.05;;;10.82;;
62102;SDS011;48077;48.104;11.702;2023-04-15T08:17:47;11.50;;;10.52;;
62102;SDS011;48077;48.104;11.702;2023-04-15T08:20:11;25.20;;;13.40;;
62102;SDS011;48077;48.104;11.702;2023-04-15T08:22:35;10.65;;;9.80;;
62102;SDS011;48077;48.104;11.702;2023-04-15T08:25:01;12.88;;;10.80;;
62102;SDS011;48077;48.104;11.702;2023-04-15T08:27:28;11.80;;;9.13;;
62102;SDS011;48077;48.104;11.702;2023-04-15T08:29:51;11.30;;;8.77;;
62102;SDS011;48077;48.104;11.702;2023-04-15T08:32:15;19.70;;;10.88;;
62102;SDS011;48077;48.104;11.702;2023-04-15T08:34:41;13.10;;;9.05;;
62102;SDS011;48077;48.104;11.702;2023-04-15T08:37:04;10.95;;;8.23;;
62102;SDS011;48077;48.104;11.702;2023-04-15T08:39:28;9.75;;;7.53;;
62102;SDS011;48077;48.104;11.702;2023-04-15T08:44:22;10.95;;;8.80;;
62102;SDS011;48077;48.104;11.702;2023-04-15T08:46:47;9.88;;;6.75;;
62102;SDS011;48077;48.104;11.702;2023-04-15T08:49:11;14.25;;;7.90;;
62102;SDS011;48077;48.104;11.702;2023-04-15T08:51:35;13.57;;;7.38;;
62102;SDS011;48077;48.104;11.702;2023-04-15T08:53:58;12.65;;;7.03;;
62102;SDS011;48077;48.104;11.702;2023-04-15T08:56:23;13.07;;;7.57;;
62102;SDS011;48077;48.104;11.702;2023-04-15T08:58:51;8.73;;;7.82;;
62102;SDS011;48077;48.104;11.702;2023-04-15T09:01:15;10.50;;;6.07;;
62102;SDS011;48077;48.104;11.702;2023-04-15T09:03:39;8.18;;;6.03;;
62102;SDS011;48077;48.104;11.702;2023-04-15T09:06:04;9.75;;;6.40;;
62102;SDS011;48077;48.104;11.702;2023-04-15T09:08:28;13.75;;;8.43;;
62102;SDS011;48077;48.104;11.702;2023-04-15T09:10:52;11.32;;;6.63;;
62102;SDS011;48077;48.104;11.702;2023-04-15T09:13:16;13.48;;;7.55;;
62102;SDS011;48077;48.104;11.702;2023-04-15T09:15:40;6.43;;;5.35;;
62102;SDS011;48077;48.104;11.702;2023-04-15T09:18:04;7.22;;;5.57;;
62102;SDS011;48077;48.104;11.702;2023-04-15T09:20:28;10.98;;;5.90;;
62102;SDS011;48077;48.104;11.702;2023-04-15T09:22:51;7.70;;;6.75;;
62102;SDS011;48077;48.104;11.702;2023-04-15T09:27:47;6.90;;;5.18;;
62102;SDS011;48077;48.104;11.702;2023-04-15T09:30:11;7.47;;;5.43;;
62102;SDS011;48077;48.104;11.702;2023-04-15T09:32:35;8.30;;;5.05;;
62102;SDS011;48077;48.104;11.702;2023-04-15T09:35:13;6.90;;;5.95;;
62102;SDS011;48077;48.104;11.702;2023-04-15T09:37:37;7.55;;;5.38;;
62102;SDS011;48077;48.104;11.702;2023-04-15T09:40:00;10.18;;;6.32;;
62102;SDS011;48077;48.104;11.702;2023-04-15T09:42:23;11.10;;;6.05;;
62102;SDS011;48077;48.104;11.702;2023-04-15T09:44:49;7.75;;;5.90;;
62102;SDS011;48077;48.104;11.702;2023-04-15T09:47:25;10.65;;;6.75;;
62102;SDS011;48077;48.104;11.702;2023-04-15T09:49:56;8.20;;;5.85;;
62102;SDS011;48077;48.104;11.702;2023-04-15T09:52:20;10.50;;;6.97;;
62102;SDS011;48077;48.104;11.702;2023-04-15T09:54:44;5.78;;;4.90;;
62102;SDS011;48077;48.104;11.702;2023-04-15T09:57:07;10.25;;;7.32;;
62102;SDS011;48077;48.104;11.702;2023-04-15T09:59:35;12.52;;;6.50;;
62102;SDS011;48077;48.104;11.702;2023-04-15T10:01:58;10.38;;;6.88;;
62102;SDS011;48077;48.104;11.702;2023-04-15T10:04:22;7.50;;;6.13;;
62102;SDS011;48077;48.104;11.702;2023-04-15T10:06:46;8.05;;;7.25;;
62102;SDS011;48077;48.104;11.702;2023-04-15T10:09:10;14.85;;;7.15;;
62102;SDS011;48077;48.104;11.702;2023-04-15T10:11:34;9.75;;;7.72;;
62102;SDS011;48077;48.104;11.702;2023-04-15T10:13:57;10.80;;;7.38;;
62102;SDS011;48077;48.104;11.702;2023-04-15T10:16:22;9.63;;;6.97;;
62102;SDS011;48077;48.104;11.702;2023-04-15T10:18:56;9.45;;;7.30;;
62102;SDS011;48077;48.104;11.702;2023-04-15T10:21:20;10.18;;;8.18;;
62102;SDS011;48077;48.104;11.702;2023-04-15T10:23:45;9.13;;;7.07;;
62102;SDS011;48077;48.104;11.702;2023-04-15T10:26:09;13.27;;;8.20;;
62102;SDS011;48077;48.104;11.702;2023-04-15T10:28:37;9.18;;;8.20;;
62102;SDS011;48077;48.104;11.702;2023-04-15T10:31:00;10.20;;;7.22;;
62102;SDS011;48077;48.104;11.702;2023-04-15T10:33:26;8.98;;;7.07;;
62102;SDS011;48077;48.104;11.702;2023-04-15T10:35:51;7.47;;;6.63;;
62102;SDS011;48077;48.104;11.702;2023-04-15T10:38:30;9.07;;;6.72;;
62102;SDS011;48077;48.104;11.702;2023-04-15T10:40:54;15.90;;;13.43;;
62102;SDS011;48077;48.104;11.702;2023-04-15T10:43:37;12.27;;;9.88;;
62102;SDS011;48077;48.104;11.702;2023-04-15T10:46:03;33.17;;;23.52;;
62102;SDS011;48077;48.104;11.702;2023-04-15T10:48:28;19.00;;;13.30;;
62102;SDS011;48077;48.104;11.702;2023-04-15T10:50:55;22.70;;;14.27;;
62102;SDS011;48077;48.104;11.702;2023-04-15T10:53:27;11.20;;;8.25;;
62102;SDS011;48077;48.104;11.702;2023-04-15T10:55:51;29.95;;;17.17;;
62102;SDS011;48077;48.104;11.702;2023-04-15T10:58:14;20.00;;;11.88;;
62102;SDS011;48077;48.104;11.702;2023-04-15T11:00:40;28.35;;;15.23;;
62102;SDS011;48077;48.104;11.702;2023-04-15T11:03:14;20.60;;;12.93;;
62102;SDS011;48077;48.104;11.702;2023-04-15T11:08:03;13.38;;;9.02;;
62102;SDS011;48077;48.104;11.702;2023-04-15T11:12:51;10.95;;;8.43;;
62102;SDS011;48077;48.104;11.702;2023-04-15T11:17:54;10.32;;;7.90;;
62102;SDS011;48077;48.104;11.702;2023-04-15T11:20:21;12.93;;;6.80;;
62102;SDS011;48077;48.104;11.702;2023-04-15T11:22:54;10.05;;;6.85;;
62102;SDS011;48077;48.104;11.702;2023-04-15T11:25:21;11.75;;;8.10;;
62102;SDS011;48077;48.104;11.702;2023-04-15T11:27:45;12.02;;;6.63;;
62102;SDS011;48077;48.104;11.702;2023-04-15T11:30:17;9.75;;;7.00;;
62102;SDS011;48077;48.104;11.702;2023-04-15T11:32:42;9.45;;;6.32;;
62102;SDS011;48077;48.104;11.702;2023-04-15T11:35:06;8.95;;;6.85;;
62102;SDS011;48077;48.104;11.702;2023-04-15T11:37:29;10.43;;;7.10;;
62102;SDS011;48077;48.104;11.702;2023-04-15T11:39:54;9.70;;;6.40;;
62102;SDS011;48077;48.104;11.702;2023-04-15T11:42:20;9.05;;;6.45;;
62102;SDS011;48077;48.104;11.702;2023-04-15T11:44:43;11.85;;;6.93;;
62102;SDS011;48077;48.104;11.702;2023-04-15T11:47:22;14.65;;;8.13;;
62102;SDS011;48077;48.104;11.702;2023-04-15T11:49:48;8.68;;;7.03;;
62102;SDS011;48077;48.104;11.702;2023-04-15T11:52:11;8.93;;;6.38;;
62102;SDS011;48077;48.104;11.702;2023-04-15T11:54:35;8.30;;;5.60;;
62102;SDS011;48077;48.104;11.702;2023-04-15T11:56:59;11.07;;;6.53;;
62102;SDS011;48077;48.104;11.702;2023-04-15T11:59:24;10.35;;;7.47;;
62102;SDS011;48077;48.104;11.702;2023-04-15T12:01:48;9.88;;;6.43;;
62102;SDS011;48077;48.104;11.702;2023-04-15T12:04:12;12.93;;;7.68;;
62102;SDS011;48077;48.104;11.702;2023-04-15T12:06:36;12.57;;;7.90;;
62102;SDS011;48077;48.104;11.702;2023-04-15T12:09:13;9.70;;;6.43;;
62102;SDS011;48077;48.104;11.702;2023-04-15T12:11:39;10.65;;;7.00;;
62102;SDS011;48077;48.104;11.702;2023-04-15T12:14:09;10.20;;;7.50;;
62102;SDS011;48077;48.104;11.702;2023-04-15T12:16:35;9.20;;;7.68;;
62102;SDS011;48077;48.104;11.702;2023-04-15T12:19:03;11.38;;;7.47;;
62102;SDS011;48077;48.104;11.702;2023-04-15T12:21:32;10.48;;;7.40;;
62102;SDS011;48077;48.104;11.702;2023-04-15T12:24:00;10.90;;;7.15;;
62102;SDS011;48077;48.104;11.702;2023-04-15T12:26:25;8.73;;;7.05;;
62102;SDS011;48077;48.104;11.702;2023-04-15T12:29:09;11.60;;;8.38;;
62102;SDS011;48077;48.104;11.702;2023-04-15T12:31:34;11.43;;;6.65;;
62102;SDS011;48077;48.104;11.702;2023-04-15T12:33:59;10.32;;;7.68;;
62102;SDS011;48077;48.104;11.702;2023-04-15T12:36:23;9.88;;;7.47;;
62102;SDS011;48077;48.104;11.702;2023-04-15T12:38:46;8.30;;;6.35;;
62102;SDS011;48077;48.104;11.702;2023-04-15T12:41:10;12.88;;;8.32;;
62102;SDS011;48077;48.104;11.702;2023-04-15T12:43:33;9.77;;;6.40;;
62102;SDS011;48077;48.104;11.702;2023-04-15T12:45:56;10.70;;;6.35;;
62102;SDS011;48077;48.104;11.702;2023-04-15T12:48:20;12.63;;;7.22;;
62102;SDS011;48077;48.104;11.702;2023-04-15T12:50:43;7.97;;;6.07;;
62102;SDS011;48077;48.104;11.702;2023-04-15T12:53:06;13.55;;;8.35;;
62102;SDS011;48077;48.104;11.702;2023-04-15T12:55:31;9.20;;;6.45;;
62102;SDS011;48077;48.104;11.702;2023-04-15T12:57:54;6.80;;;5.95;;
62102;SDS011;48077;48.104;11.702;2023-04-15T13:00:20;13.30;;;7.63;;
62102;SDS011;48077;48.104;11.702;2023-04-15T13:02:44;9.20;;;5.88;;
62102;SDS011;48077;48.104;11.702;2023-04-15T13:05:07;13.02;;;7.38;;
62102;SDS011;48077;48.104;11.702;2023-04-15T13:07:33;11.40;;;6.75;;
62102;SDS011;48077;48.104;11.702;2023-04-15T13:09:56;7.57;;;5.30;;
62102;SDS011;48077;48.104;11.702;2023-04-15T13:12:20;12.27;;;5.38;;
62102;SDS011;48077;48.104;11.702;2023-04-15T13:14:43;7.72;;;5.63;;
62102;SDS011;48077;48.104;11.702;2023-04-15T13:17:07;11.10;;;6.00;;
62102;SDS011;48077;48.104;11.702;2023-04-15T13:19:32;10.38;;;6.00;;
62102;SDS011;48077;48.104;11.702;2023-04-15T13:21:55;7.97;;;5.53;;
62102;SDS011;48077;48.104;11.702;2023-04-15T13:24:21;9.82;;;6.72;;
62102;SDS011;48077;48.104;11.702;2023-04-15T13:26:44;10.13;;;6.00;;
62102;SDS011;48077;48.104;11.702;2023-04-15T13:29:07;12.68;;;7.22;;
62102;SDS011;48077;48.104;11.702;2023-04-15T13:31:31;13.93;;;7.95;;
62102;SDS011;48077;48.104;11.702;2023-04-15T13:33:55;9.57;;;6.03;;
62102;SDS011;48077;48.104;11.702;2023-04-15T13:36:19;12.90;;;6.90;;
62102;SDS011;48077;48.104;11.702;2023-04-15T13:38:42;8.57;;;6.65;;
62102;SDS011;48077;48.104;11.702;2023-04-15T13:41:05;10.93;;;7.35;;
62102;SDS011;48077;48.104;11.702;2023-04-15T13:43:29;12.57;;;8.95;;
62102;SDS011;48077;48.104;11.702;2023-04-15T13:45:52;9.55;;;7.15;;
62102;SDS011;48077;48.104;11.702;2023-04-15T13:48:15;10.80;;;7.68;;
62102;SDS011;48077;48.104;11.702;2023-04-15T13:50:39;12.07;;;10.40;;
62102;SDS011;48077;48.104;11.702;2023-04-15T13:53:07;21.15;;;17.88;;
62102;SDS011;48077;48.104;11.702;2023-04-15T13:55:30;17.92;;;8.73;;
62102;SDS011;48077;48.104;11.702;2023-04-15T13:57:53;10.82;;;8.52;;
62102;SDS011;48077;48.104;11.702;2023-04-15T14:00:18;10.30;;;7.60;;
62102;SDS011;48077;48.104;11.702;2023-04-15T14:02:41;8.95;;;7.45;;
62102;SDS011;48077;48.104;11.702;2023-04-15T14:05:05;10.95;;;8.18;;
62102;SDS011;48077;48.104;11.702;2023-04-15T14:07:28;10.55;;;7.63;;
62102;SDS011;48077;48.104;11.702;2023-04-15T14:09:52;10.25;;;9.02;;
62102;SDS011;48077;48.104;11.702;2023-04-15T14:12:17;10.50;;;8.45;;
62102;SDS011;48077;48.104;11.702;2023-04-15T14:14:40;10.32;;;8.90;;
62102;SDS011;48077;48.104;11.702;2023-04-15T14:17:03;20.83;;;13.48;;
62102;SDS011;48077;48.104;11.702;2023-04-15T14:19:28;17.50;;;11.45;;